createdAt,value
2023-02-05T00:01:41.397Z,101076.20
2023-02-05T00:06:45.470Z,101073.63
2023-02-05T00:11:48.332Z,101076.88
2023-02-05T00:16:52.463Z,101080.16
2023-02-05T00:21:55.356Z,101077.38
2023-02-05T00:26:58.164Z,101077.19
2023-02-05T00:32:00.985Z,101082.21
2023-02-05T00:37:03.862Z,101084.52
2023-02-05T00:42:06.697Z,101085.58
2023-02-05T00:47:09.521Z,101084.41
2023-02-05T00:52:12.416Z,101082.58
2023-02-05T00:57:15.271Z,101082.69
2023-02-05T01:02:25.553Z,101087.01
2023-02-05T01:07:28.576Z,101080.69
2023-02-05T01:12:33.284Z,101083.48
2023-02-05T01:17:36.207Z,101081.73
2023-02-05T01:22:39.255Z,101079.55
2023-02-05T01:27:42.116Z,101086.00
2023-02-05T01:32:44.958Z,101087.64
2023-02-05T01:37:47.778Z,101097.33
2023-02-05T01:42:50.662Z,101103.05
2023-02-05T01:47:57.315Z,101100.63
2023-02-05T01:53:05.300Z,101105.70
2023-02-05T01:58:09.407Z,101106.87
2023-02-05T02:03:14.438Z,101103.08
2023-02-05T02:08:17.303Z,101108.78
2023-02-05T02:13:23.238Z,101110.01
2023-02-05T02:18:27.578Z,101106.31
2023-02-05T02:24:36.236Z,101104.20
2023-02-05T02:29:49.561Z,101110.79
2023-02-05T02:35:20.134Z,101115.38
2023-02-05T02:40:33.126Z,101119.77
2023-02-05T02:45:44.052Z,101120.97
2023-02-05T02:50:50.387Z,101120.20
2023-02-05T02:55:56.988Z,101123.23
2023-02-05T03:01:01.976Z,101130.39
2023-02-05T03:06:09.926Z,101131.38
2023-02-05T03:11:14.888Z,101130.05
2023-02-05T03:16:20.472Z,101135.48
2023-02-05T03:21:49.071Z,101131.86
2023-02-05T03:26:51.870Z,101129.05
2023-02-05T03:32:22.192Z,101126.49
2023-02-05T03:37:51.508Z,101126.45
2023-02-05T03:43:24.638Z,101125.40
2023-02-05T03:49:00.794Z,101122.59
2023-02-05T03:54:25.899Z,101124.45
2023-02-05T03:59:29.950Z,101119.17
2023-02-05T04:04:32.944Z,101121.50
2023-02-05T04:09:35.881Z,101125.62
2023-02-05T04:14:38.736Z,101120.73
2023-02-05T04:19:41.613Z,101117.66
2023-02-05T04:24:44.410Z,101123.48
2023-02-05T04:29:47.244Z,101132.95
2023-02-05T04:34:50.342Z,101138.15
2023-02-05T04:39:53.164Z,101140.35
2023-02-05T04:44:56.070Z,101144.73
2023-02-05T04:49:58.916Z,101147.71
2023-02-05T04:55:01.817Z,101146.63
2023-02-05T05:00:05.104Z,101142.85
2023-02-05T05:05:08.888Z,101148.34
2023-02-05T05:10:12.372Z,101155.55
2023-02-05T05:15:15.257Z,101161.86
2023-02-05T05:20:18.308Z,101165.09
2023-02-05T05:25:21.308Z,101168.98
2023-02-05T05:30:24.107Z,101167.27
2023-02-05T05:35:26.921Z,101168.81
2023-02-05T05:40:49.262Z,101168.79
2023-02-05T05:45:52.685Z,101169.77
2023-02-05T05:50:55.644Z,101175.20
2023-02-05T05:55:58.777Z,101180.77
2023-02-05T06:01:01.862Z,101179.84
2023-02-05T06:06:06.941Z,101185.54
2023-02-05T06:11:09.826Z,101188.48
2023-02-05T06:16:12.711Z,101186.27
2023-02-05T06:21:15.790Z,101196.65
2023-02-05T06:26:18.627Z,101207.79
2023-02-05T06:31:21.546Z,101217.43
2023-02-05T06:36:24.911Z,101222.16
2023-02-05T06:41:27.803Z,101221.71
2023-02-05T06:46:30.755Z,101226.58
2023-02-05T06:51:33.634Z,101231.62
2023-02-05T06:56:36.463Z,101234.38
2023-02-05T07:01:39.357Z,101230.17
2023-02-05T07:06:42.198Z,101222.38
2023-02-05T07:11:45.220Z,101215.23
2023-02-05T07:16:58.616Z,101216.50
2023-02-05T07:22:01.517Z,101223.20
2023-02-05T07:27:04.380Z,101221.50
2023-02-05T07:32:07.415Z,101228.38
2023-02-05T07:37:13.458Z,101243.90
2023-02-05T07:42:16.293Z,101255.87
2023-02-05T07:47:21.686Z,101260.45
2023-02-05T07:52:24.559Z,101258.55
2023-02-05T07:57:27.441Z,101255.86
2023-02-05T08:02:30.254Z,101258.69
2023-02-05T08:07:33.315Z,101266.50
2023-02-05T08:12:36.143Z,101274.41
2023-02-05T08:17:39.016Z,101269.21
2023-02-05T08:22:45.464Z,101272.75
2023-02-05T08:27:49.346Z,101275.91
2023-02-05T08:32:52.146Z,101286.13
2023-02-05T08:37:55.010Z,101289.27
2023-02-05T08:43:00.373Z,101301.39
2023-02-05T08:48:03.583Z,101309.61
2023-02-05T08:53:07.316Z,101311.98
2023-02-05T08:58:10.175Z,101311.65
2023-02-05T09:03:13.060Z,101312.86
2023-02-05T09:08:15.917Z,101321.83
2023-02-05T09:13:18.862Z,101332.54
2023-02-05T09:18:21.736Z,101339.63
2023-02-05T09:23:24.662Z,101340.76
2023-02-05T09:28:27.531Z,101346.02
2023-02-05T09:33:30.632Z,101354.73
2023-02-05T09:38:33.562Z,101356.09
2023-02-05T09:43:56.340Z,101353.57
2023-02-05T09:49:18.478Z,101353.29
2023-02-05T09:54:28.811Z,101352.27
2023-02-05T09:59:34.220Z,101354.48
2023-02-05T10:04:37.065Z,101356.30
2023-02-05T10:10:03.250Z,101358.53
2023-02-05T10:15:35.511Z,101362.35
2023-02-05T10:20:50.889Z,101356.83
2023-02-05T10:26:12.402Z,101359.73
2023-02-05T10:31:42.313Z,101352.45
2023-02-05T10:36:54.184Z,101358.70
2023-02-05T10:42:19.442Z,101358.20
2023-02-05T10:48:00.872Z,101354.70
2023-02-05T10:53:04.199Z,101347.19
2023-02-05T10:59:14.893Z,101336.52
2023-02-05T11:04:33.306Z,101347.15
2023-02-05T11:09:36.219Z,101349.42
2023-02-05T11:14:43.799Z,101354.95
2023-02-05T11:20:04.614Z,101355.48
2023-02-05T11:25:17.798Z,101343.31
2023-02-05T11:30:50.540Z,101333.38
2023-02-05T11:36:00.195Z,101334.15
2023-02-05T11:41:07.223Z,101329.99
2023-02-05T11:46:17.003Z,101330.42
2023-02-05T11:51:44.870Z,101330.88
2023-02-05T11:57:05.701Z,101334.00
2023-02-05T12:02:25.992Z,101330.34
2023-02-05T12:07:37.309Z,101331.85
2023-02-05T12:12:57.674Z,101328.77
2023-02-05T12:18:16.593Z,101321.41
2023-02-05T12:23:35.442Z,101324.80
2023-02-05T12:29:27.924Z,101325.84
2023-02-05T12:35:30.680Z,101327.66
2023-02-05T12:40:53.057Z,101320.55
2023-02-05T12:45:58.734Z,101323.35
2023-02-05T12:51:26.187Z,101329.89
2023-02-05T12:57:05.823Z,101332.73
2023-02-05T13:02:36.843Z,101328.09
2023-02-05T13:08:04.052Z,101330.34
2023-02-05T13:13:15.020Z,101323.29
2023-02-05T13:18:28.719Z,101319.09
2023-02-05T13:23:52.878Z,101322.15
2023-02-05T13:29:12.071Z,101321.16
2023-02-05T13:34:17.227Z,101316.20
2023-02-05T13:39:34.606Z,101313.93
2023-02-05T13:45:11.324Z,101319.18
2023-02-05T13:50:41.700Z,101326.86
2023-02-05T13:56:12.073Z,101334.34
2023-02-05T14:01:22.611Z,101330.43
2023-02-05T14:06:36.044Z,101332.15
2023-02-05T14:11:58.987Z,101329.23
2023-02-05T14:17:28.944Z,101333.84
2023-02-05T14:22:44.453Z,101338.35
2023-02-05T14:27:51.210Z,101334.02
2023-02-05T14:32:58.889Z,101339.57
2023-02-05T14:38:14.995Z,101343.84
2023-02-05T14:43:32.238Z,101343.29
2023-02-05T14:48:42.816Z,101353.08
2023-02-05T14:53:56.341Z,101355.45
2023-02-05T14:59:07.634Z,101360.14
2023-02-05T15:04:28.483Z,101365.94
2023-02-05T15:09:53.807Z,101368.02
2023-02-05T15:14:58.585Z,101367.96
2023-02-05T15:20:26.732Z,101362.98
2023-02-05T15:25:43.709Z,101362.98
2023-02-05T15:30:57.725Z,101376.30
2023-02-05T15:36:08.708Z,101378.15
2023-02-05T15:41:16.184Z,101374.57
2023-02-05T15:46:20.706Z,101384.15
2023-02-05T15:51:32.709Z,101396.16
2023-02-05T15:56:42.354Z,101408.34
2023-02-05T16:02:25.946Z,101407.33
2023-02-05T16:07:41.766Z,101401.07
2023-02-05T16:13:03.048Z,101406.66
2023-02-05T16:18:15.352Z,101405.26
2023-02-05T16:23:32.499Z,101403.61
2023-02-05T16:29:03.194Z,101407.09
2023-02-05T16:34:17.593Z,101418.10
2023-02-05T16:39:39.885Z,101416.67
2023-02-05T16:44:47.312Z,101419.58
2023-02-05T16:49:50.253Z,101419.33
2023-02-05T16:54:53.529Z,101421.23
2023-02-05T17:00:02.856Z,101430.84
2023-02-05T17:05:37.254Z,101437.18
2023-02-05T17:10:55.762Z,101440.89
2023-02-05T17:16:28.929Z,101445.47
2023-02-05T17:21:37.235Z,101452.30
2023-02-05T17:26:43.067Z,101451.54
2023-02-05T17:31:45.955Z,101450.33
2023-02-05T17:36:48.781Z,101442.98
2023-02-05T17:42:03.783Z,101441.33
2023-02-05T17:47:06.727Z,101450.68
2023-02-05T17:52:10.628Z,101458.10
2023-02-05T17:57:22.596Z,101464.16
2023-02-05T18:02:26.790Z,101463.81
2023-02-05T18:07:38.622Z,101457.02
2023-02-05T18:12:42.274Z,101449.69
2023-02-05T18:17:46.182Z,101454.10
2023-02-05T18:22:49.467Z,101459.48
2023-02-05T18:27:53.024Z,101468.77
2023-02-05T18:32:55.856Z,101478.42
2023-02-05T18:37:58.914Z,101483.23
2023-02-05T18:43:02.628Z,101483.76
2023-02-05T18:48:05.757Z,101486.36
2023-02-05T18:53:08.573Z,101488.77
2023-02-05T18:58:11.405Z,101489.62
2023-02-05T19:03:14.232Z,101492.05
2023-02-05T19:08:17.130Z,101491.64
2023-02-05T19:13:19.938Z,101497.48
2023-02-05T19:18:22.910Z,101494.45
2023-02-05T19:23:25.756Z,101495.30
2023-02-05T19:28:29.313Z,101491.75
2023-02-05T19:33:35.852Z,101485.11
2023-02-05T19:38:40.596Z,101483.41
2023-02-05T19:43:50.562Z,101484.36
2023-02-05T19:48:55.974Z,101496.80
2023-02-05T19:54:03.117Z,101501.70
2023-02-05T19:59:06.754Z,101505.63
2023-02-05T20:04:24.745Z,101504.77
2023-02-05T20:09:28.417Z,101507.95
2023-02-05T20:14:31.401Z,101509.69
2023-02-05T20:19:34.311Z,101513.39
2023-02-05T20:24:37.829Z,101524.20
2023-02-05T20:29:59.036Z,101528.22
2023-02-05T20:35:01.913Z,101535.55
2023-02-05T20:40:05.251Z,101535.52
2023-02-05T20:45:10.876Z,101537.70
2023-02-05T20:50:13.772Z,101543.61
2023-02-05T20:55:16.718Z,101548.46
2023-02-05T21:00:21.171Z,101559.65
2023-02-05T21:05:23.998Z,101563.97
2023-02-05T21:10:26.885Z,101557.94
2023-02-05T21:15:30.178Z,101567.04
2023-02-05T21:20:33.281Z,101566.64
2023-02-05T21:25:36.607Z,101570.08
2023-02-05T21:30:40.680Z,101580.38
2023-02-05T21:35:43.940Z,101586.03
2023-02-05T21:40:46.811Z,101589.34
2023-02-05T21:45:49.676Z,101591.72
2023-02-05T21:50:52.547Z,101598.86
2023-02-05T21:55:55.535Z,101607.01
2023-02-05T22:01:10.705Z,101615.85
2023-02-05T22:06:13.745Z,101617.45
2023-02-05T22:11:19.491Z,101611.16
2023-02-05T22:16:29.388Z,101618.34
2023-02-05T22:21:41.393Z,101615.96
2023-02-05T22:26:47.197Z,101613.20
2023-02-05T22:31:52.647Z,101605.05
2023-02-05T22:36:55.564Z,101612.30
2023-02-05T22:41:58.743Z,101612.57
2023-02-05T22:47:01.617Z,101614.36
2023-02-05T22:52:04.444Z,101612.66
2023-02-05T22:57:07.285Z,101620.48
2023-02-05T23:02:10.108Z,101629.61
2023-02-05T23:07:12.927Z,101626.69
2023-02-05T23:12:15.708Z,101626.34
2023-02-05T23:17:18.536Z,101633.53
2023-02-05T23:22:21.402Z,101634.80
2023-02-05T23:27:26.581Z,101639.55
2023-02-05T23:32:30.193Z,101645.33
2023-02-05T23:37:33.464Z,101637.55
2023-02-05T23:42:36.316Z,101637.02
2023-02-05T23:47:39.162Z,101637.31
2023-02-05T23:52:41.997Z,101629.95
2023-02-05T23:57:44.864Z,101618.56
